sensor_id;sensor_type;location;lat;lon;timestamp;P1;durP1;ratioP1;P2;durP2;ratioP2
51438;SDS011;38816;51.142;-0.974;2022-08-19T00:00:14;12.27;;;3.95;;
51438;SDS011;38816;51.142;-0.974;2022-08-19T00:02:41;11.93;;;3.13;;
51438;SDS011;38816;51.142;-0.974;2022-08-19T00:05:07;7.63;;;2.80;;
51438;SDS011;38816;51.142;-0.974;2022-08-19T00:07:34;5.82;;;3.40;;
51438;SDS011;38816;51.142;-0.974;2022-08-19T00:09:59;14.45;;;3.00;;
51438;SDS011;38816;51.142;-0.974;2022-08-19T00:12:25;7.95;;;3.47;;
51438;SDS011;38816;51.142;-0.974;2022-08-19T00:14:50;10.32;;;2.90;;
51438;SDS011;38816;51.142;-0.974;2022-08-19T00:17:16;7.88;;;2.55;;
51438;SDS011;38816;51.142;-0.974;2022-08-19T00:19:42;6.97;;;2.53;;
51438;SDS011;38816;51.142;-0.974;2022-08-19T00:22:07;8.75;;;2.17;;
51438;SDS011;38816;51.142;-0.974;2022-08-19T00:24:33;7.47;;;2.15;;
51438;SDS011;38816;51.142;-0.974;2022-08-19T00:26:59;5.18;;;2.03;;
51438;SDS011;38816;51.142;-0.974;2022-08-19T00:29:26;4.03;;;2.10;;
51438;SDS011;38816;51.142;-0.974;2022-08-19T00:31:52;5.00;;;1.58;;
51438;SDS011;38816;51.142;-0.974;2022-08-19T00:34:20;5.38;;;2.00;;
51438;SDS011;38816;51.142;-0.974;2022-08-19T00:36:46;4.15;;;2.20;;
51438;SDS011;38816;51.142;-0.974;2022-08-19T00:39:12;6.50;;;2.33;;
51438;SDS011;38816;51.142;-0.974;2022-08-19T00:41:40;4.72;;;1.95;;
51438;SDS011;38816;51.142;-0.974;2022-08-19T00:44:11;5.30;;;2.03;;
51438;SDS011;38816;51.142;-0.974;2022-08-19T00:46:41;5.32;;;1.90;;
51438;SDS011;38816;51.142;-0.974;2022-08-19T00:49:11;6.70;;;2.10;;
51438;SDS011;38816;51.142;-0.974;2022-08-19T00:51:39;5.70;;;1.80;;
51438;SDS011;38816;51.142;-0.974;2022-08-19T00:54:07;5.25;;;2.25;;
51438;SDS011;38816;51.142;-0.974;2022-08-19T00:56:34;5.25;;;2.08;;
51438;SDS011;38816;51.142;-0.974;2022-08-19T00:59:00;4.80;;;1.90;;
51438;SDS011;38816;51.142;-0.974;2022-08-19T01:01:28;6.65;;;2.00;;
51438;SDS011;38816;51.142;-0.974;2022-08-19T01:03:54;5.80;;;2.05;;
51438;SDS011;38816;51.142;-0.974;2022-08-19T01:06:19;3.83;;;1.95;;
51438;SDS011;38816;51.142;-0.974;2022-08-19T01:08:45;5.72;;;2.10;;
51438;SDS011;38816;51.142;-0.974;2022-08-19T01:11:11;2.75;;;1.70;;
51438;SDS011;38816;51.142;-0.974;2022-08-19T01:13:37;4.97;;;1.73;;
51438;SDS011;38816;51.142;-0.974;2022-08-19T01:16:07;7.47;;;2.10;;
51438;SDS011;38816;51.142;-0.974;2022-08-19T01:18:36;9.95;;;2.20;;
51438;SDS011;38816;51.142;-0.974;2022-08-19T01:21:08;6.45;;;2.00;;
51438;SDS011;38816;51.142;-0.974;2022-08-19T01:23:40;4.38;;;1.67;;
51438;SDS011;38816;51.142;-0.974;2022-08-19T01:26:12;4.97;;;2.20;;
51438;SDS011;38816;51.142;-0.974;2022-08-19T01:28:43;5.35;;;1.75;;
51438;SDS011;38816;51.142;-0.974;2022-08-19T01:31:13;4.80;;;1.88;;
51438;SDS011;38816;51.142;-0.974;2022-08-19T01:33:41;5.38;;;2.10;;
51438;SDS011;38816;51.142;-0.974;2022-08-19T01:36:10;7.30;;;2.30;;
51438;SDS011;38816;51.142;-0.974;2022-08-19T01:38:38;5.95;;;1.85;;
51438;SDS011;38816;51.142;-0.974;2022-08-19T01:41:06;5.95;;;1.90;;
51438;SDS011;38816;51.142;-0.974;2022-08-19T01:43:33;6.82;;;1.60;;
51438;SDS011;38816;51.142;-0.974;2022-08-19T01:45:58;7.28;;;1.98;;
51438;SDS011;38816;51.142;-0.974;2022-08-19T01:48:24;6.38;;;1.80;;
51438;SDS011;38816;51.142;-0.974;2022-08-19T01:50:49;5.00;;;1.73;;
51438;SDS011;38816;51.142;-0.974;2022-08-19T01:53:15;5.43;;;1.88;;
51438;SDS011;38816;51.142;-0.974;2022-08-19T01:55:41;3.95;;;1.80;;
51438;SDS011;38816;51.142;-0.974;2022-08-19T01:58:11;4.30;;;1.95;;
51438;SDS011;38816;51.142;-0.974;2022-08-19T02:06:07;4.40;;;1.55;;
51438;SDS011;38816;51.142;-0.974;2022-08-19T02:08:34;8.38;;;2.28;;
51438;SDS011;38816;51.142;-0.974;2022-08-19T02:11:02;4.88;;;1.70;;
51438;SDS011;38816;51.142;-0.974;2022-08-19T02:13:28;4.45;;;1.85;;
51438;SDS011;38816;51.142;-0.974;2022-08-19T02:15:54;5.30;;;2.17;;
51438;SDS011;38816;51.142;-0.974;2022-08-19T02:18:20;5.82;;;1.80;;
51438;SDS011;38816;51.142;-0.974;2022-08-19T02:20:45;6.50;;;1.70;;
51438;SDS011;38816;51.142;-0.974;2022-08-19T02:23:15;3.33;;;1.70;;
51438;SDS011;38816;51.142;-0.974;2022-08-19T02:25:42;9.20;;;1.98;;
51438;SDS011;38816;51.142;-0.974;2022-08-19T02:28:10;4.45;;;1.60;;
51438;SDS011;38816;51.142;-0.974;2022-08-19T02:30:36;5.65;;;1.70;;
51438;SDS011;38816;51.142;-0.974;2022-08-19T02:33:03;5.88;;;2.33;;
51438;SDS011;38816;51.142;-0.974;2022-08-19T02:35:29;5.22;;;1.80;;
51438;SDS011;38816;51.142;-0.974;2022-08-19T02:37:55;3.35;;;1.90;;
51438;SDS011;38816;51.142;-0.974;2022-08-19T02:40:38;4.68;;;2.35;;
51438;SDS011;38816;51.142;-0.974;2022-08-19T02:43:05;9.20;;;2.30;;
51438;SDS011;38816;51.142;-0.974;2022-08-19T02:45:36;5.22;;;1.80;;
51438;SDS011;38816;51.142;-0.974;2022-08-19T02:48:03;3.78;;;1.90;;
51438;SDS011;38816;51.142;-0.974;2022-08-19T02:50:29;7.45;;;2.03;;
51438;SDS011;38816;51.142;-0.974;2022-08-19T02:52:55;6.63;;;1.80;;
51438;SDS011;38816;51.142;-0.974;2022-08-19T02:55:21;4.43;;;1.48;;
51438;SDS011;38816;51.142;-0.974;2022-08-19T02:57:47;8.13;;;2.00;;
51438;SDS011;38816;51.142;-0.974;2022-08-19T03:00:12;4.93;;;1.38;;
51438;SDS011;38816;51.142;-0.974;2022-08-19T03:02:38;4.43;;;1.50;;
51438;SDS011;38816;51.142;-0.974;2022-08-19T03:05:05;3.35;;;1.55;;
51438;SDS011;38816;51.142;-0.974;2022-08-19T03:07:31;3.17;;;1.90;;
51438;SDS011;38816;51.142;-0.974;2022-08-19T03:09:57;3.45;;;1.40;;
51438;SDS011;38816;51.142;-0.974;2022-08-19T03:12:23;6.32;;;1.92;;
51438;SDS011;38816;51.142;-0.974;2022-08-19T03:14:48;7.43;;;1.90;;
51438;SDS011;38816;51.142;-0.974;2022-08-19T03:17:13;4.75;;;1.50;;
51438;SDS011;38816;51.142;-0.974;2022-08-19T03:19:39;5.03;;;1.65;;
51438;SDS011;38816;51.142;-0.974;2022-08-19T03:22:05;4.82;;;1.63;;
51438;SDS011;38816;51.142;-0.974;2022-08-19T03:24:30;5.90;;;1.50;;
51438;SDS011;38816;51.142;-0.974;2022-08-19T03:26:56;4.75;;;1.23;;
51438;SDS011;38816;51.142;-0.974;2022-08-19T03:29:23;4.85;;;1.50;;
51438;SDS011;38816;51.142;-0.974;2022-08-19T03:31:50;3.17;;;1.48;;
51438;SDS011;38816;51.142;-0.974;2022-08-19T03:34:21;2.70;;;1.67;;
51438;SDS011;38816;51.142;-0.974;2022-08-19T03:36:54;2.42;;;1.40;;
51438;SDS011;38816;51.142;-0.974;2022-08-19T03:39:22;2.00;;;1.45;;
51438;SDS011;38816;51.142;-0.974;2022-08-19T03:41:49;3.35;;;1.60;;
51438;SDS011;38816;51.142;-0.974;2022-08-19T03:44:17;4.47;;;1.55;;
51438;SDS011;38816;51.142;-0.974;2022-08-19T03:46:49;1.67;;;1.10;;
51438;SDS011;38816;51.142;-0.974;2022-08-19T03:49:17;4.35;;;1.38;;
51438;SDS011;38816;51.142;-0.974;2022-08-19T03:51:44;1.38;;;0.95;;
51438;SDS011;38816;51.142;-0.974;2022-08-19T03:54:11;2.45;;;1.30;;
51438;SDS011;38816;51.142;-0.974;2022-08-19T03:56:39;2.85;;;1.08;;
51438;SDS011;38816;51.142;-0.974;2022-08-19T03:59:06;4.78;;;1.80;;
51438;SDS011;38816;51.142;-0.974;2022-08-19T04:01:34;3.05;;;1.10;;
51438;SDS011;38816;51.142;-0.974;2022-08-19T04:04:00;2.20;;;1.17;;
51438;SDS011;38816;51.142;-0.974;2022-08-19T04:06:30;2.17;;;1.20;;
51438;SDS011;38816;51.142;-0.974;2022-08-19T04:08:58;5.22;;;1.20;;
51438;SDS011;38816;51.142;-0.974;2022-08-19T04:11:30;3.15;;;1.40;;
51438;SDS011;38816;51.142;-0.974;2022-08-19T04:14:00;3.50;;;1.40;;
51438;SDS011;38816;51.142;-0.974;2022-08-19T04:16:26;2.42;;;1.30;;
51438;SDS011;38816;51.142;-0.974;2022-08-19T04:18:54;3.15;;;1.10;;
51438;SDS011;38816;51.142;-0.974;2022-08-19T04:21:21;5.00;;;1.05;;
51438;SDS011;38816;51.142;-0.974;2022-08-19T04:23:49;4.28;;;1.20;;
51438;SDS011;38816;51.142;-0.974;2022-08-19T04:26:23;2.30;;;1.05;;
51438;SDS011;38816;51.142;-0.974;2022-08-19T04:28:50;5.25;;;1.13;;
51438;SDS011;38816;51.142;-0.974;2022-08-19T04:31:23;4.38;;;1.40;;
51438;SDS011;38816;51.142;-0.974;2022-08-19T04:33:54;2.38;;;1.30;;
51438;SDS011;38816;51.142;-0.974;2022-08-19T04:36:23;2.25;;;1.35;;
51438;SDS011;38816;51.142;-0.974;2022-08-19T04:38:52;3.00;;;1.40;;
51438;SDS011;38816;51.142;-0.974;2022-08-19T04:41:20;3.92;;;1.45;;
51438;SDS011;38816;51.142;-0.974;2022-08-19T04:44:04;4.03;;;1.48;;
51438;SDS011;38816;51.142;-0.974;2022-08-19T04:46:30;6.97;;;1.40;;
51438;SDS011;38816;51.142;-0.974;2022-08-19T04:48:57;5.38;;;1.50;;
51438;SDS011;38816;51.142;-0.974;2022-08-19T04:51:27;3.90;;;1.42;;
51438;SDS011;38816;51.142;-0.974;2022-08-19T04:53:55;6.45;;;3.15;;
51438;SDS011;38816;51.142;-0.974;2022-08-19T04:56:21;2.83;;;1.30;;
51438;SDS011;38816;51.142;-0.974;2022-08-19T04:58:47;2.30;;;1.17;;
51438;SDS011;38816;51.142;-0.974;2022-08-19T05:01:27;4.35;;;1.20;;
51438;SDS011;38816;51.142;-0.974;2022-08-19T05:03:53;1.83;;;1.08;;
51438;SDS011;38816;51.142;-0.974;2022-08-19T05:06:20;2.55;;;1.20;;
51438;SDS011;38816;51.142;-0.974;2022-08-19T05:08:46;1.70;;;0.70;;
51438;SDS011;38816;51.142;-0.974;2022-08-19T05:11:14;2.55;;;0.68;;
51438;SDS011;38816;51.142;-0.974;2022-08-19T05:13:40;1.27;;;0.70;;
51438;SDS011;38816;51.142;-0.974;2022-08-19T05:16:07;2.15;;;0.63;;
51438;SDS011;38816;51.142;-0.974;2022-08-19T05:18:32;1.85;;;0.70;;
51438;SDS011;38816;51.142;-0.974;2022-08-19T05:21:17;3.92;;;0.70;;
51438;SDS011;38816;51.142;-0.974;2022-08-19T05:24:02;1.95;;;0.63;;
51438;SDS011;38816;51.142;-0.974;2022-08-19T05:26:32;2.85;;;1.17;;
51438;SDS011;38816;51.142;-0.974;2022-08-19T05:28:57;1.67;;;0.80;;
51438;SDS011;38816;51.142;-0.974;2022-08-19T05:31:23;4.55;;;0.60;;
51438;SDS011;38816;51.142;-0.974;2022-08-19T05:33:48;2.13;;;1.00;;
51438;SDS011;38816;51.142;-0.974;2022-08-19T05:36:15;3.47;;;0.80;;
51438;SDS011;38816;51.142;-0.974;2022-08-19T05:38:40;7.03;;;1.40;;
51438;SDS011;38816;51.142;-0.974;2022-08-19T05:41:07;2.72;;;0.80;;
51438;SDS011;38816;51.142;-0.974;2022-08-19T05:43:33;0.50;;;0.50;;
51438;SDS011;38816;51.142;-0.974;2022-08-19T05:45:59;3.10;;;1.13;;
51438;SDS011;38816;51.142;-0.974;2022-08-19T05:48:24;0.88;;;0.70;;
51438;SDS011;38816;51.142;-0.974;2022-08-19T05:50:50;2.30;;;0.98;;
51438;SDS011;38816;51.142;-0.974;2022-08-19T05:53:16;0.57;;;0.57;;
51438;SDS011;38816;51.142;-0.974;2022-08-19T05:55:42;5.60;;;1.30;;
51438;SDS011;38816;51.142;-0.974;2022-08-19T05:58:07;1.50;;;0.73;;
51438;SDS011;38816;51.142;-0.974;2022-08-19T06:00:33;1.77;;;0.52;;
51438;SDS011;38816;51.142;-0.974;2022-08-19T06:02:59;6.57;;;0.77;;
51438;SDS011;38816;51.142;-0.974;2022-08-19T06:05:28;1.00;;;0.60;;
51438;SDS011;38816;51.142;-0.974;2022-08-19T06:07:57;2.45;;;0.60;;
51438;SDS011;38816;51.142;-0.974;2022-08-19T06:10:23;5.75;;;0.68;;
51438;SDS011;38816;51.142;-0.974;2022-08-19T06:12:49;2.95;;;0.80;;
51438;SDS011;38816;51.142;-0.974;2022-08-19T06:15:14;1.92;;;0.70;;
51438;SDS011;38816;51.142;-0.974;2022-08-19T06:17:40;2.20;;;0.65;;
51438;SDS011;38816;51.142;-0.974;2022-08-19T06:20:07;2.65;;;0.82;;
51438;SDS011;38816;51.142;-0.974;2022-08-19T06:22:40;3.22;;;0.85;;
51438;SDS011;38816;51.142;-0.974;2022-08-19T06:25:07;1.00;;;0.70;;
51438;SDS011;38816;51.142;-0.974;2022-08-19T06:27:34;1.38;;;0.60;;
51438;SDS011;38816;51.142;-0.974;2022-08-19T06:30:00;3.20;;;0.63;;
51438;SDS011;38816;51.142;-0.974;2022-08-19T06:32:26;1.55;;;0.73;;
51438;SDS011;38816;51.142;-0.974;2022-08-19T06:34:51;3.50;;;0.57;;
51438;SDS011;38816;51.142;-0.974;2022-08-19T06:37:17;1.65;;;0.80;;
51438;SDS011;38816;51.142;-0.974;2022-08-19T06:39:43;1.50;;;0.68;;
51438;SDS011;38816;51.142;-0.974;2022-08-19T06:42:10;3.92;;;0.75;;
51438;SDS011;38816;51.142;-0.974;2022-08-19T06:44:38;2.55;;;0.80;;
51438;SDS011;38816;51.142;-0.974;2022-08-19T06:47:07;3.78;;;0.80;;
51438;SDS011;38816;51.142;-0.974;2022-08-19T06:49:34;1.30;;;0.60;;
51438;SDS011;38816;51.142;-0.974;2022-08-19T06:52:00;7.15;;;0.98;;
51438;SDS011;38816;51.142;-0.974;2022-08-19T06:54:26;4.85;;;0.77;;
51438;SDS011;38816;51.142;-0.974;2022-08-19T06:56:54;4.85;;;0.80;;
51438;SDS011;38816;51.142;-0.974;2022-08-19T06:59:21;3.50;;;1.15;;
51438;SDS011;38816;51.142;-0.974;2022-08-19T07:01:49;2.25;;;0.90;;
51438;SDS011;38816;51.142;-0.974;2022-08-19T07:04:17;1.45;;;0.70;;
51438;SDS011;38816;51.142;-0.974;2022-08-19T07:06:45;2.55;;;0.70;;
51438;SDS011;38816;51.142;-0.974;2022-08-19T07:09:12;3.13;;;0.95;;
51438;SDS011;38816;51.142;-0.974;2022-08-19T07:11:44;4.88;;;1.00;;
51438;SDS011;38816;51.142;-0.974;2022-08-19T07:14:16;2.13;;;0.70;;
51438;SDS011;38816;51.142;-0.974;2022-08-19T07:16:43;2.95;;;1.00;;
51438;SDS011;38816;51.142;-0.974;2022-08-19T07:19:10;2.42;;;0.80;;
51438;SDS011;38816;51.142;-0.974;2022-08-19T07:21:36;2.85;;;0.90;;
51438;SDS011;38816;51.142;-0.974;2022-08-19T07:24:02;3.60;;;0.90;;
51438;SDS011;38816;51.142;-0.974;2022-08-19T07:26:29;3.47;;;0.80;;
51438;SDS011;38816;51.142;-0.974;2022-08-19T07:28:57;4.78;;;1.02;;
51438;SDS011;38816;51.142;-0.974;2022-08-19T07:31:25;5.85;;;1.10;;
51438;SDS011;38816;51.142;-0.974;2022-08-19T07:33:53;3.88;;;1.10;;
51438;SDS011;38816;51.142;-0.974;2022-08-19T07:36:24;4.28;;;1.00;;
51438;SDS011;38816;51.142;-0.974;2022-08-19T07:38:56;5.32;;;1.10;;
51438;SDS011;38816;51.142;-0.974;2022-08-19T07:41:22;5.93;;;0.88;;
51438;SDS011;38816;51.142;-0.974;2022-08-19T07:43:49;5.93;;;1.10;;
51438;SDS011;38816;51.142;-0.974;2022-08-19T07:46:17;6.05;;;1.27;;
51438;SDS011;38816;51.142;-0.974;2022-08-19T07:48:45;7.32;;;1.30;;
51438;SDS011;38816;51.142;-0.974;2022-08-19T07:51:14;5.25;;;0.95;;
51438;SDS011;38816;51.142;-0.974;2022-08-19T07:53:42;5.72;;;1.02;;
51438;SDS011;38816;51.142;-0.974;2022-08-19T07:56:10;5.35;;;1.25;;
51438;SDS011;38816;51.142;-0.974;2022-08-19T07:58:37;6.22;;;1.08;;
51438;SDS011;38816;51.142;-0.974;2022-08-19T08:01:04;9.13;;;1.50;;
51438;SDS011;38816;51.142;-0.974;2022-08-19T08:03:32;5.72;;;1.70;;
51438;SDS011;38816;51.142;-0.974;2022-08-19T08:06:16;7.07;;;1.30;;
51438;SDS011;38816;51.142;-0.974;2022-08-19T08:09:19;6.95;;;1.83;;
51438;SDS011;38816;51.142;-0.974;2022-08-19T08:11:49;7.53;;;2.00;;
51438;SDS011;38816;51.142;-0.974;2022-08-19T08:14:21;5.93;;;1.60;;
51438;SDS011;38816;51.142;-0.974;2022-08-19T08:16:49;5.78;;;1.40;;
51438;SDS011;38816;51.142;-0.974;2022-08-19T08:19:16;7.72;;;1.40;;
51438;SDS011;38816;51.142;-0.974;2022-08-19T08:21:43;11.90;;;2.10;;
51438;SDS011;38816;51.142;-0.974;2022-08-19T08:24:10;7.00;;;1.60;;
51438;SDS011;38816;51.142;-0.974;2022-08-19T08:26:36;7.00;;;1.42;;
51438;SDS011;38816;51.142;-0.974;2022-08-19T08:29:02;9.30;;;1.73;;
51438;SDS011;38816;51.142;-0.974;2022-08-19T08:31:28;9.18;;;1.65;;
51438;SDS011;38816;51.142;-0.974;2022-08-19T08:33:53;12.57;;;1.98;;
51438;SDS011;38816;51.142;-0.974;2022-08-19T08:36:19;6.90;;;1.63;;
51438;SDS011;38816;51.142;-0.974;2022-08-19T08:38:45;4.70;;;1.30;;
51438;SDS011;38816;51.142;-0.974;2022-08-19T08:43:48;4.78;;;1.33;;
51438;SDS011;38816;51.142;-0.974;2022-08-19T08:52:00;5.22;;;1.25;;
51438;SDS011;38816;51.142;-0.974;2022-08-19T08:54:41;6.40;;;1.35;;
51438;SDS011;38816;51.142;-0.974;2022-08-19T08:57:13;4.55;;;1.20;;
51438;SDS011;38816;51.142;-0.974;2022-08-19T08:59:43;7.32;;;1.63;;
51438;SDS011;38816;51.142;-0.974;2022-08-19T09:02:16;9.63;;;1.80;;
51438;SDS011;38816;51.142;-0.974;2022-08-19T09:04:42;5.10;;;1.42;;
51438;SDS011;38816;51.142;-0.974;2022-08-19T09:09:40;7.53;;;1.20;;
51438;SDS011;38816;51.142;-0.974;2022-08-19T09:14:57;6.65;;;1.58;;
51438;SDS011;38816;51.142;-0.974;2022-08-19T09:17:27;7.53;;;1.50;;
51438;SDS011;38816;51.142;-0.974;2022-08-19T09:20:00;7.17;;;1.60;;
51438;SDS011;38816;51.142;-0.974;2022-08-19T09:22:31;9.57;;;2.20;;
51438;SDS011;38816;51.142;-0.974;2022-08-19T09:24:57;12.73;;;2.17;;
51438;SDS011;38816;51.142;-0.974;2022-08-19T09:27:23;12.43;;;1.65;;
51438;SDS011;38816;51.142;-0.974;2022-08-19T09:29:50;9.07;;;1.77;;
51438;SDS011;38816;51.142;-0.974;2022-08-19T09:32:16;11.15;;;1.80;;
51438;SDS011;38816;51.142;-0.974;2022-08-19T09:34:43;7.05;;;1.70;;
51438;SDS011;38816;51.142;-0.974;2022-08-19T09:37:09;8.02;;;1.80;;
51438;SDS011;38816;51.142;-0.974;2022-08-19T09:39:34;5.68;;;1.73;;
51438;SDS011;38816;51.142;-0.974;2022-08-19T09:42:00;6.40;;;1.70;;
51438;SDS011;38816;51.142;-0.974;2022-08-19T09:44:28;9.30;;;1.85;;
51438;SDS011;38816;51.142;-0.974;2022-08-19T09:46:54;9.63;;;1.80;;
51438;SDS011;38816;51.142;-0.974;2022-08-19T09:49:19;10.77;;;1.92;;
51438;SDS011;38816;51.142;-0.974;2022-08-19T09:51:49;7.57;;;1.90;;
51438;SDS011;38816;51.142;-0.974;2022-08-19T09:54:15;8.52;;;2.00;;
51438;SDS011;38816;51.142;-0.974;2022-08-19T09:56:40;9.00;;;2.10;;
51438;SDS011;38816;51.142;-0.974;2022-08-19T09:59:06;10.00;;;1.83;;
51438;SDS011;38816;51.142;-0.974;2022-08-19T10:01:33;10.00;;;1.65;;
51438;SDS011;38816;51.142;-0.974;2022-08-19T10:03:59;12.40;;;2.63;;
51438;SDS011;38816;51.142;-0.974;2022-08-19T10:06:27;10.55;;;2.17;;
51438;SDS011;38816;51.142;-0.974;2022-08-19T10:08:58;9.75;;;1.92;;
51438;SDS011;38816;51.142;-0.974;2022-08-19T10:11:24;10.95;;;1.90;;
51438;SDS011;38816;51.142;-0.974;2022-08-19T10:13:50;9.00;;;1.85;;
51438;SDS011;38816;51.142;-0.974;2022-08-19T10:16:17;4.88;;;1.77;;
51438;SDS011;38816;51.142;-0.974;2022-08-19T10:18:45;7.57;;;1.88;;
51438;SDS011;38816;51.142;-0.974;2022-08-19T10:21:18;9.95;;;2.00;;
51438;SDS011;38816;51.142;-0.974;2022-08-19T10:23:46;8.07;;;2.60;;
51438;SDS011;38816;51.142;-0.974;2022-08-19T10:26:14;9.07;;;1.85;;
51438;SDS011;38816;51.142;-0.974;2022-08-19T10:28:48;8.02;;;2.00;;
51438;SDS011;38816;51.142;-0.974;2022-08-19T10:31:16;12.30;;;2.38;;
51438;SDS011;38816;51.142;-0.974;2022-08-19T10:33:48;7.60;;;1.67;;
51438;SDS011;38816;51.142;-0.974;2022-08-19T10:36:18;16.33;;;1.48;;
51438;SDS011;38816;51.142;-0.974;2022-08-19T10:38:47;8.68;;;1.40;;
51438;SDS011;38816;51.142;-0.974;2022-08-19T10:41:25;7.10;;;1.50;;
51438;SDS011;38816;51.142;-0.974;2022-08-19T10:43:54;8.75;;;1.75;;
51438;SDS011;38816;51.142;-0.974;2022-08-19T10:46:22;5.80;;;1.75;;
51438;SDS011;38816;51.142;-0.974;2022-08-19T10:48:48;6.80;;;1.77;;
51438;SDS011;38816;51.142;-0.974;2022-08-19T10:51:14;4.50;;;1.10;;
51438;SDS011;38816;51.142;-0.974;2022-08-19T10:54:16;8.20;;;1.50;;
51438;SDS011;38816;51.142;-0.974;2022-08-19T10:56:42;6.25;;;1.48;;
51438;SDS011;38816;51.142;-0.974;2022-08-19T10:59:20;5.72;;;1.45;;
51438;SDS011;38816;51.142;-0.974;2022-08-19T11:01:46;6.65;;;1.70;;
51438;SDS011;38816;51.142;-0.974;2022-08-19T11:04:12;8.68;;;1.70;;
51438;SDS011;38816;51.142;-0.974;2022-08-19T11:06:41;6.07;;;1.55;;
51438;SDS011;38816;51.142;-0.974;2022-08-19T11:09:09;7.10;;;1.73;;
51438;SDS011;38816;51.142;-0.974;2022-08-19T11:11:36;4.70;;;1.55;;
51438;SDS011;38816;51.142;-0.974;2022-08-19T11:14:05;8.70;;;1.50;;
51438;SDS011;38816;51.142;-0.974;2022-08-19T11:16:32;5.82;;;1.50;;
51438;SDS011;38816;51.142;-0.974;2022-08-19T11:18:58;6.53;;;1.33;;
51438;SDS011;38816;51.142;-0.974;2022-08-19T11:21:25;9.25;;;2.08;;
51438;SDS011;38816;51.142;-0.974;2022-08-19T11:23:54;7.38;;;1.70;;
51438;SDS011;38816;51.142;-0.974;2022-08-19T11:26:22;6.15;;;1.83;;
51438;SDS011;38816;51.142;-0.974;2022-08-19T11:28:48;2.65;;;0.93;;
51438;SDS011;38816;51.142;-0.974;2022-08-19T11:31:19;5.97;;;1.50;;
51438;SDS011;38816;51.142;-0.974;2022-08-19T11:33:47;4.93;;;1.60;;
51438;SDS011;38816;51.142;-0.974;2022-08-19T11:36:15;4.57;;;1.55;;
51438;SDS011;38816;51.142;-0.974;2022-08-19T11:38:41;12.30;;;1.85;;
51438;SDS011;38816;51.142;-0.974;2022-08-19T11:41:07;9.57;;;1.67;;
51438;SDS011;38816;51.142;-0.974;2022-08-19T11:43:34;9.13;;;1.70;;
51438;SDS011;38816;51.142;-0.974;2022-08-19T11:46:05;6.68;;;1.70;;
51438;SDS011;38816;51.142;-0.974;2022-08-19T11:48:32;9.15;;;1.80;;
51438;SDS011;38816;51.142;-0.974;2022-08-19T11:50:58;6.70;;;1.67;;
51438;SDS011;38816;51.142;-0.974;2022-08-19T11:53:24;5.03;;;1.52;;
51438;SDS011;38816;51.142;-0.974;2022-08-19T11:55:50;8.20;;;1.30;;
51438;SDS011;38816;51.142;-0.974;2022-08-19T11:58:21;7.88;;;1.83;;
51438;SDS011;38816;51.142;-0.974;2022-08-19T12:00:47;9.07;;;1.83;;
51438;SDS011;38816;51.142;-0.974;2022-08-19T12:03:12;7.47;;;1.58;;
51438;SDS011;38816;51.142;-0.974;2022-08-19T12:05:38;6.18;;;1.70;;
51438;SDS011;38816;51.142;-0.974;2022-08-19T12:08:05;8.45;;;1.90;;
51438;SDS011;38816;51.142;-0.974;2022-08-19T12:10:32;7.28;;;1.60;;
51438;SDS011;38816;51.142;-0.974;2022-08-19T12:12:58;5.75;;;1.67;;
51438;SDS011;38816;51.142;-0.974;2022-08-19T12:15:25;6.05;;;1.05;;
51438;SDS011;38816;51.142;-0.974;2022-08-19T12:17:52;5.28;;;1.55;;
51438;SDS011;38816;51.142;-0.974;2022-08-19T12:20:21;5.57;;;1.13;;
51438;SDS011;38816;51.142;-0.974;2022-08-19T12:22:48;9.38;;;1.42;;
51438;SDS011;38816;51.142;-0.974;2022-08-19T12:25:14;6.35;;;1.60;;
51438;SDS011;38816;51.142;-0.974;2022-08-19T12:27:39;7.45;;;1.63;;
51438;SDS011;38816;51.142;-0.974;2022-08-19T12:30:06;8.35;;;1.75;;
51438;SDS011;38816;51.142;-0.974;2022-08-19T12:32:33;5.53;;;1.38;;
51438;SDS011;38816;51.142;-0.974;2022-08-19T12:34:59;5.90;;;1.55;;
51438;SDS011;38816;51.142;-0.974;2022-08-19T12:37:24;4.88;;;1.30;;
51438;SDS011;38816;51.142;-0.974;2022-08-19T12:39:50;7.80;;;1.40;;
51438;SDS011;38816;51.142;-0.974;2022-08-19T12:42:15;9.73;;;1.38;;
51438;SDS011;38816;51.142;-0.974;2022-08-19T12:44:42;5.60;;;1.42;;
51438;SDS011;38816;51.142;-0.974;2022-08-19T12:47:09;7.32;;;1.55;;
51438;SDS011;38816;51.142;-0.974;2022-08-19T12:49:36;5.65;;;1.40;;
51438;SDS011;38816;51.142;-0.974;2022-08-19T12:52:05;4.55;;;1.23;;
51438;SDS011;38816;51.142;-0.974;2022-08-19T12:54:33;11.07;;;1.67;;
51438;SDS011;38816;51.142;-0.974;2022-08-19T12:57:00;7.18;;;1.48;;
51438;SDS011;38816;51.142;-0.974;2022-08-19T12:59:26;8.95;;;1.60;;
51438;SDS011;38816;51.142;-0.974;2022-08-19T13:01:52;6.72;;;1.75;;
51438;SDS011;38816;51.142;-0.974;2022-08-19T13:04:18;10.27;;;1.70;;
51438;SDS011;38816;51.142;-0.974;2022-08-19T13:06:43;6.70;;;1.33;;
51438;SDS011;38816;51.142;-0.974;2022-08-19T13:09:09;6.47;;;1.50;;
51438;SDS011;38816;51.142;-0.974;2022-08-19T13:11:35;5.07;;;1.33;;
51438;SDS011;38816;51.142;-0.974;2022-08-19T13:14:02;5.15;;;1.20;;
51438;SDS011;38816;51.142;-0.974;2022-08-19T13:16:29;11.60;;;1.70;;
51438;SDS011;38816;51.142;-0.974;2022-08-19T13:18:55;6.22;;;1.30;;
51438;SDS011;38816;51.142;-0.974;2022-08-19T13:21:22;4.45;;;1.20;;
51438;SDS011;38816;51.142;-0.974;2022-08-19T13:23:50;6.43;;;1.50;;
51438;SDS011;38816;51.142;-0.974;2022-08-19T13:26:16;2.97;;;0.95;;
51438;SDS011;38816;51.142;-0.974;2022-08-19T13:28:42;4.60;;;1.42;;
51438;SDS011;38816;51.142;-0.974;2022-08-19T13:31:34;5.40;;;1.20;;
51438;SDS011;38816;51.142;-0.974;2022-08-19T13:34:25;5.32;;;1.70;;
51438;SDS011;38816;51.142;-0.974;2022-08-19T13:36:53;10.77;;;1.73;;
51438;SDS011;38816;51.142;-0.974;2022-08-19T13:39:19;11.13;;;2.72;;
51438;SDS011;38816;51.142;-0.974;2022-08-19T13:41:45;8.77;;;1.52;;
51438;SDS011;38816;51.142;-0.974;2022-08-19T13:44:18;6.15;;;1.30;;
51438;SDS011;38816;51.142;-0.974;2022-08-19T13:46:44;8.80;;;1.80;;
51438;SDS011;38816;51.142;-0.974;2022-08-19T13:49:13;11.00;;;1.65;;
51438;SDS011;38816;51.142;-0.974;2022-08-19T13:51:40;4.22;;;1.20;;
51438;SDS011;38816;51.142;-0.974;2022-08-19T13:54:06;4.82;;;1.50;;
51438;SDS011;38816;51.142;-0.974;2022-08-19T13:56:33;5.85;;;1.65;;
51438;SDS011;38816;51.142;-0.974;2022-08-19T13:58:59;5.75;;;1.50;;
51438;SDS011;38816;51.142;-0.974;2022-08-19T14:01:25;7.57;;;1.27;;
51438;SDS011;38816;51.142;-0.974;2022-08-19T14:03:51;5.38;;;1.38;;
51438;SDS011;38816;51.142;-0.974;2022-08-19T14:06:17;7.95;;;1.48;;
51438;SDS011;38816;51.142;-0.974;2022-08-19T14:08:43;11.18;;;1.55;;
51438;SDS011;38816;51.142;-0.974;2022-08-19T14:11:09;5.63;;;1.35;;
51438;SDS011;38816;51.142;-0.974;2022-08-19T14:13:35;10.82;;;2.22;;
51438;SDS011;38816;51.142;-0.974;2022-08-19T14:16:01;5.32;;;1.40;;
51438;SDS011;38816;51.142;-0.974;2022-08-19T14:18:32;5.53;;;1.20;;
51438;SDS011;38816;51.142;-0.974;2022-08-19T14:20:57;7.05;;;1.40;;
51438;SDS011;38816;51.142;-0.974;2022-08-19T14:23:22;4.75;;;1.33;;
51438;SDS011;38816;51.142;-0.974;2022-08-19T14:25:51;6.82;;;1.27;;
51438;SDS011;38816;51.142;-0.974;2022-08-19T14:28:16;5.28;;;1.25;;
51438;SDS011;38816;51.142;-0.974;2022-08-19T14:30:42;3.55;;;1.10;;
51438;SDS011;38816;51.142;-0.974;2022-08-19T14:33:09;5.40;;;1.20;;
51438;SDS011;38816;51.142;-0.974;2022-08-19T14:35:35;4.13;;;1.40;;
51438;SDS011;38816;51.142;-0.974;2022-08-19T14:38:02;4.05;;;1.33;;
51438;SDS011;38816;51.142;-0.974;2022-08-19T14:40:28;8.13;;;1.33;;
51438;SDS011;38816;51.142;-0.974;2022-08-19T14:42:59;6.50;;;1.60;;
51438;SDS011;38816;51.142;-0.974;2022-08-19T14:45:28;9.50;;;1.80;;
51438;SDS011;38816;51.142;-0.974;2022-08-19T14:47:56;7.05;;;1.60;;
51438;SDS011;38816;51.142;-0.974;2022-08-19T14:50:21;6.88;;;1.63;;
51438;SDS011;38816;51.142;-0.974;2022-08-19T14:52:48;2.33;;;1.02;;
51438;SDS011;38816;51.142;-0.974;2022-08-19T14:55:14;6.68;;;1.50;;